createdAt,value
2023-04-03T00:01:39.184Z,99.90
2023-04-03T00:04:09.788Z,99.90
2023-04-03T00:06:39.191Z,99.90
2023-04-03T00:09:09.298Z,99.90
2023-04-03T00:11:37.985Z,99.90
2023-04-03T00:14:05.862Z,99.90
2023-04-03T00:16:35.430Z,99.90
2023-04-03T00:19:03.423Z,99.90
2023-04-03T00:21:33.687Z,99.90
2023-04-03T00:24:12.455Z,99.90
2023-04-03T00:26:40.363Z,99.90
2023-04-03T00:29:08.306Z,99.90
2023-04-03T00:31:36.166Z,99.90
2023-04-03T00:34:04.299Z,99.90
2023-04-03T00:36:32.411Z,99.90
2023-04-03T00:39:00.320Z,99.90
2023-04-03T00:41:29.635Z,99.90
2023-04-03T00:43:58.163Z,99.90
2023-04-03T00:46:26.205Z,99.90
2023-04-03T00:49:37.601Z,99.90
2023-04-03T00:55:22.629Z,99.90
2023-04-03T00:57:52.482Z,99.90
2023-04-03T01:00:24.198Z,99.90
2023-04-03T01:02:52.921Z,99.90
2023-04-03T01:05:24.937Z,99.90
2023-04-03T01:07:59.956Z,99.90
2023-04-03T01:10:28.232Z,99.90
2023-04-03T01:13:14.189Z,99.90
2023-04-03T01:15:43.002Z,99.90
2023-04-03T01:18:12.266Z,99.90
2023-04-03T01:21:30.418Z,99.90
2023-04-03T01:24:11.999Z,99.90
2023-04-03T01:26:39.926Z,99.90
2023-04-03T01:29:10.496Z,99.90
2023-04-03T01:31:54.865Z,99.90
2023-04-03T01:34:23.320Z,99.90
2023-04-03T01:36:53.677Z,99.90
2023-04-03T01:42:12.561Z,99.90
2023-04-03T01:45:07.146Z,99.90
2023-04-03T01:51:29.692Z,99.90
2023-04-03T01:54:12.844Z,99.90
2023-04-03T01:56:40.917Z,99.90
2023-04-03T02:07:51.672Z,99.90
2023-04-03T02:10:38.139Z,99.90
2023-04-03T02:13:21.363Z,99.90
2023-04-03T02:15:51.305Z,99.90
2023-04-03T02:18:19.348Z,99.90
2023-04-03T02:20:48.791Z,99.90
2023-04-03T02:23:21.319Z,99.90
2023-04-03T02:25:50.089Z,99.90
2023-04-03T02:28:26.712Z,99.90
2023-04-03T02:30:54.707Z,99.90
2023-04-03T02:33:22.621Z,99.90
2023-04-03T02:35:56.219Z,99.90
2023-04-03T02:38:24.721Z,99.90
2023-04-03T02:40:52.836Z,99.90
2023-04-03T02:43:21.099Z,99.90
2023-04-03T02:45:49.106Z,99.90
2023-04-03T02:48:17.649Z,99.90
2023-04-03T02:50:46.834Z,99.90
2023-04-03T02:53:32.296Z,99.90
2023-04-03T02:56:19.119Z,99.90
2023-04-03T02:58:47.270Z,99.90
2023-04-03T03:01:16.468Z,99.90
2023-04-03T03:03:44.887Z,99.90
2023-04-03T03:06:14.446Z,99.90
2023-04-03T03:08:44.366Z,99.90
2023-04-03T03:11:22.633Z,99.90
2023-04-03T03:13:52.286Z,99.90
2023-04-03T03:16:21.941Z,99.90
2023-04-03T03:18:50.911Z,99.90
2023-04-03T03:21:18.812Z,99.90
2023-04-03T03:23:49.010Z,99.90
2023-04-03T03:26:17.020Z,99.90
2023-04-03T03:28:44.916Z,99.90
2023-04-03T03:34:05.041Z,99.90
2023-04-03T03:36:33.276Z,99.90
2023-04-03T03:39:02.474Z,99.90
2023-04-03T03:41:30.433Z,99.90
2023-04-03T03:44:02.705Z,99.90
2023-04-03T03:46:30.638Z,99.90
2023-04-03T03:48:58.517Z,99.90
2023-04-03T03:51:26.472Z,99.90
2023-04-03T03:53:54.380Z,99.90
2023-04-03T03:56:23.645Z,99.90
2023-04-03T03:58:51.505Z,99.90
2023-04-03T04:01:22.077Z,99.90
2023-04-03T04:03:51.068Z,99.90
2023-04-03T04:06:19.410Z,99.90
2023-04-03T04:08:47.329Z,99.90
2023-04-03T04:11:15.632Z,99.90
2023-04-03T04:13:45.821Z,99.90
2023-04-03T04:16:13.771Z,99.90
2023-04-03T04:18:45.509Z,99.90
2023-04-03T04:21:36.311Z,99.90
2023-04-03T04:24:06.669Z,99.90
2023-04-03T04:26:36.452Z,99.90
2023-04-03T04:29:10.669Z,99.90
2023-04-03T04:31:38.759Z,99.90
2023-04-03T04:34:06.877Z,99.90
2023-04-03T04:36:47.883Z,99.90
2023-04-03T04:39:20.660Z,99.90
2023-04-03T04:41:48.537Z,99.90
2023-04-03T04:47:10.393Z,99.90
2023-04-03T04:49:38.389Z,99.90
2023-04-03T04:52:07.354Z,99.90
2023-04-03T04:54:35.480Z,99.90
2023-04-03T04:57:03.997Z,99.90
2023-04-03T04:59:35.230Z,99.90
2023-04-03T05:02:05.414Z,99.90
2023-04-03T05:04:34.371Z,99.90
2023-04-03T05:07:05.077Z,99.90
2023-04-03T05:09:55.064Z,99.90
2023-04-03T05:12:37.223Z,99.90
2023-04-03T05:15:05.802Z,99.90
2023-04-03T05:17:35.726Z,99.90
2023-04-03T05:20:17.600Z,99.90
2023-04-03T05:22:45.550Z,99.90
2023-04-03T05:25:24.933Z,99.90
2023-04-03T05:28:43.915Z,99.90
2023-04-03T05:31:11.892Z,99.90
2023-04-03T05:33:41.238Z,99.90
2023-04-03T05:36:24.096Z,99.90
2023-04-03T05:41:42.417Z,99.90
2023-04-03T05:44:10.631Z,99.90
2023-04-03T05:46:39.600Z,99.90
2023-04-03T05:49:08.933Z,99.90
2023-04-03T05:51:39.360Z,99.90
2023-04-03T05:54:19.387Z,99.90
2023-04-03T05:56:47.520Z,99.90
2023-04-03T05:59:15.627Z,99.90
2023-04-03T06:01:45.599Z,99.90
2023-04-03T06:04:15.244Z,99.90
2023-04-03T06:06:50.000Z,99.90
2023-04-03T06:09:18.682Z,99.90
2023-04-03T06:11:46.915Z,99.90
2023-04-03T06:14:14.899Z,99.90
2023-04-03T06:16:42.846Z,99.90
2023-04-03T06:19:12.042Z,99.90
2023-04-03T06:21:42.124Z,99.90
2023-04-03T06:24:11.545Z,99.90
2023-04-03T06:26:41.584Z,99.90
2023-04-03T06:29:09.693Z,99.90
2023-04-03T06:31:39.194Z,99.90
2023-04-03T06:34:09.865Z,99.90
2023-04-03T06:36:38.349Z,99.90
2023-04-03T06:39:09.320Z,99.90
2023-04-03T06:41:39.000Z,99.90
2023-04-03T06:44:13.793Z,99.90
2023-04-03T06:46:42.918Z,99.90
2023-04-03T06:49:12.907Z,99.90
2023-04-03T06:51:43.695Z,99.90
2023-04-03T06:54:13.712Z,99.90
2023-04-03T06:56:47.732Z,99.90
2023-04-03T06:59:17.116Z,99.90
2023-04-03T07:01:45.190Z,99.90
2023-04-03T07:04:13.617Z,99.90
2023-04-03T07:06:43.074Z,99.90
2023-04-03T07:09:17.580Z,99.90
2023-04-03T07:11:46.742Z,99.90
2023-04-03T07:14:14.722Z,99.90
2023-04-03T07:16:43.510Z,99.90
2023-04-03T07:19:11.802Z,99.90
2023-04-03T07:21:42.830Z,99.90
2023-04-03T07:24:15.089Z,99.90
2023-04-03T07:26:46.307Z,99.90
2023-04-03T07:29:16.506Z,99.90
2023-04-03T07:31:45.820Z,99.90
2023-04-03T07:34:15.247Z,99.90
2023-04-03T07:36:51.749Z,99.90
2023-04-03T07:39:21.249Z,99.90
2023-04-03T07:41:49.269Z,99.90
2023-04-03T07:44:21.531Z,99.90
2023-04-03T07:46:51.993Z,99.90
2023-04-03T07:49:25.837Z,99.90
2023-04-03T07:51:59.603Z,99.90
2023-04-03T07:54:30.188Z,99.90
2023-04-03T07:56:58.202Z,99.90
2023-04-03T07:59:30.377Z,99.90
2023-04-03T08:02:00.756Z,99.90
2023-04-03T08:04:28.805Z,99.90
2023-04-03T08:07:12.141Z,99.90
2023-04-03T08:09:46.482Z,99.90
2023-04-03T08:12:16.707Z,99.90
2023-04-03T08:14:44.705Z,99.90
2023-04-03T08:17:14.158Z,99.90
2023-04-03T08:19:43.501Z,99.90
2023-04-03T08:22:15.200Z,99.90
2023-04-03T08:24:56.299Z,99.90
2023-04-03T08:27:32.520Z,99.90
2023-04-03T08:30:02.226Z,99.90
2023-04-03T08:32:30.419Z,99.90
2023-04-03T08:34:58.401Z,99.90
2023-04-03T08:37:26.680Z,99.90
2023-04-03T08:39:56.368Z,99.90
2023-04-03T08:42:42.637Z,99.90
2023-04-03T08:45:21.365Z,99.90
2023-04-03T08:47:55.181Z,99.90
2023-04-03T08:50:31.023Z,99.90
2023-04-03T08:53:08.807Z,99.90
2023-04-03T08:55:46.405Z,99.90
2023-04-03T08:58:17.452Z,99.90
2023-04-03T09:00:52.892Z,99.90
2023-04-03T09:03:24.268Z,99.90
2023-04-03T09:05:57.743Z,99.90
2023-04-03T09:08:28.670Z,99.90
2023-04-03T09:11:11.244Z,99.90
2023-04-03T09:13:51.685Z,99.90
2023-04-03T09:16:29.225Z,99.90
2023-04-03T09:19:06.847Z,99.90
2023-04-03T09:21:43.212Z,99.90
2023-04-03T09:24:15.685Z,99.90
2023-04-03T09:26:48.244Z,99.90
2023-04-03T09:29:21.711Z,99.90
2023-04-03T09:31:52.200Z,99.90
2023-04-03T09:34:25.814Z,99.90
2023-04-03T09:36:57.121Z,99.90
2023-04-03T09:39:30.404Z,99.90
2023-04-03T09:42:02.627Z,99.90
2023-04-03T09:44:33.363Z,99.90
2023-04-03T09:47:01.960Z,99.90
2023-04-03T09:49:32.609Z,99.90
2023-04-03T09:52:19.963Z,99.90
2023-04-03T09:54:47.914Z,99.90
2023-04-03T09:57:17.272Z,98.60
2023-04-03T09:59:49.718Z,98.50
2023-04-03T10:02:42.051Z,98.70
2023-04-03T10:05:30.337Z,99.90
2023-04-03T10:08:12.552Z,99.40
2023-04-03T10:10:47.800Z,98.00
2023-04-03T10:13:22.316Z,96.30
2023-04-03T10:16:01.224Z,95.90
2023-04-03T10:18:47.475Z,95.00
2023-04-03T10:21:27.378Z,96.30
2023-04-03T10:24:10.713Z,91.80
2023-04-03T10:27:02.524Z,90.80
2023-04-03T10:29:41.079Z,88.80
2023-04-03T10:32:29.324Z,88.40
2023-04-03T10:35:05.566Z,82.90
2023-04-03T10:37:42.678Z,85.80
2023-04-03T10:40:30.187Z,86.70
2023-04-03T10:43:11.033Z,84.50
2023-04-03T10:45:58.887Z,82.50
2023-04-03T10:48:40.923Z,84.50
2023-04-03T10:51:27.762Z,88.20
2023-04-03T10:54:09.016Z,87.90
2023-04-03T10:56:43.170Z,82.60
2023-04-03T10:59:23.268Z,80.30
2023-04-03T11:04:44.709Z,81.60
2023-04-03T11:07:19.336Z,82.10
2023-04-03T11:09:52.731Z,80.80
2023-04-03T11:12:30.129Z,81.70
2023-04-03T11:17:57.362Z,80.00
2023-04-03T11:20:38.789Z,82.90
2023-04-03T11:23:32.788Z,81.70
2023-04-03T11:26:17.061Z,79.80
2023-04-03T11:28:45.468Z,78.00
2023-04-03T11:31:46.489Z,77.80
2023-04-03T11:34:30.229Z,79.40
2023-04-03T11:37:08.998Z,79.70
2023-04-03T11:39:39.567Z,78.60
2023-04-03T11:42:19.611Z,74.40
2023-04-03T11:44:48.010Z,76.30
2023-04-03T11:47:48.607Z,76.60
2023-04-03T11:50:43.248Z,75.50
2023-04-03T11:53:36.638Z,78.50
2023-04-03T11:56:27.792Z,79.30
2023-04-03T11:59:41.153Z,77.50
2023-04-03T12:02:53.700Z,79.70
2023-04-03T12:05:30.677Z,78.10
2023-04-03T12:08:25.415Z,77.50
2023-04-03T12:11:18.481Z,78.10
2023-04-03T12:14:05.823Z,77.00
2023-04-03T12:16:44.998Z,76.00
2023-04-03T12:22:13.107Z,76.80
2023-04-03T12:24:46.079Z,79.10
2023-04-03T12:27:44.494Z,82.10
2023-04-03T12:30:23.390Z,80.10
2023-04-03T12:33:17.962Z,81.80
2023-04-03T12:36:00.603Z,82.30
2023-04-03T12:38:44.036Z,78.10
2023-04-03T12:41:40.779Z,76.30
2023-04-03T12:44:36.092Z,77.00
2023-04-03T12:47:10.430Z,78.40
2023-04-03T12:49:43.624Z,79.00
2023-04-03T12:52:25.028Z,78.00
2023-04-03T12:54:55.897Z,80.20
2023-04-03T12:57:28.584Z,78.90
2023-04-03T12:59:57.434Z,79.00
2023-04-03T13:02:27.880Z,76.10
2023-04-03T13:04:58.770Z,76.70
2023-04-03T13:07:32.656Z,77.80
2023-04-03T13:10:04.679Z,78.40
2023-04-03T13:12:34.202Z,78.90
2023-04-03T13:15:06.680Z,77.50
2023-04-03T13:17:43.300Z,78.10
2023-04-03T13:20:17.216Z,77.90
2023-04-03T13:22:53.414Z,79.40
2023-04-03T13:25:24.461Z,78.40
2023-04-03T13:28:06.255Z,78.50
2023-04-03T13:30:42.055Z,77.00
2023-04-03T13:33:23.795Z,77.30
2023-04-03T13:36:02.313Z,78.80
2023-04-03T13:38:35.132Z,76.10
2023-04-03T13:41:12.907Z,79.00
2023-04-03T13:43:44.190Z,78.10
2023-04-03T13:46:26.802Z,77.10
2023-04-03T13:48:56.684Z,77.10
2023-04-03T13:51:26.890Z,76.90
2023-04-03T13:53:57.002Z,78.50
2023-04-03T13:56:36.958Z,79.00
2023-04-03T13:59:25.424Z,79.70
2023-04-03T14:02:10.448Z,78.70
2023-04-03T14:05:02.881Z,78.90
2023-04-03T14:07:31.891Z,79.70
2023-04-03T14:10:00.161Z,81.50
2023-04-03T14:12:45.099Z,81.00
2023-04-03T14:15:25.672Z,80.80
2023-04-03T14:17:56.679Z,81.10
2023-04-03T14:20:27.937Z,81.80
2023-04-03T14:22:59.380Z,83.30
2023-04-03T14:25:29.765Z,84.50
2023-04-03T14:27:57.788Z,80.20
2023-04-03T14:30:36.676Z,82.60
2023-04-03T14:33:04.958Z,79.50
2023-04-03T14:35:38.729Z,80.80
2023-04-03T14:38:16.243Z,80.90
2023-04-03T14:40:45.349Z,77.80
2023-04-03T14:43:16.430Z,78.30
2023-04-03T14:45:52.837Z,79.40
2023-04-03T14:48:23.218Z,78.90
2023-04-03T14:51:04.470Z,78.90
2023-04-03T14:53:39.267Z,77.20
2023-04-03T14:56:14.383Z,76.00
2023-04-03T14:58:42.334Z,77.50
2023-04-03T15:01:15.542Z,78.70
2023-04-03T15:03:43.932Z,81.40
2023-04-03T15:06:13.706Z,80.40
2023-04-03T15:08:46.259Z,80.50
2023-04-03T15:11:21.060Z,81.40
2023-04-03T15:13:51.664Z,84.40
2023-04-03T15:16:23.254Z,85.20
2023-04-03T15:18:52.377Z,78.60
2023-04-03T15:21:22.710Z,76.40
2023-04-03T15:23:50.731Z,76.30
2023-04-03T15:26:22.692Z,74.70
2023-04-03T15:28:52.786Z,73.40
2023-04-03T15:31:23.869Z,72.20
2023-04-03T15:33:54.026Z,72.00
2023-04-03T15:36:33.396Z,74.30
2023-04-03T15:39:02.647Z,72.50
2023-04-03T15:41:32.979Z,74.00
2023-04-03T15:44:03.198Z,76.20
2023-04-03T15:46:35.399Z,78.50
2023-04-03T15:49:03.774Z,82.10
2023-04-03T15:51:32.705Z,84.90
2023-04-03T15:54:05.962Z,86.70
2023-04-03T15:56:34.168Z,87.00
2023-04-03T15:59:04.624Z,86.10
2023-04-03T16:01:35.463Z,86.50
2023-04-03T16:04:05.443Z,87.70
2023-04-03T16:06:34.777Z,88.10
2023-04-03T16:09:17.652Z,87.60
2023-04-03T16:11:45.979Z,87.90
2023-04-03T16:14:14.672Z,87.30
2023-04-03T16:16:44.048Z,86.60
2023-04-03T16:19:12.114Z,87.30
2023-04-03T16:21:40.096Z,86.50
2023-04-03T16:24:08.444Z,88.50
2023-04-03T16:26:37.612Z,90.10
2023-04-03T16:29:05.686Z,90.50
2023-04-03T16:31:37.656Z,89.90
2023-04-03T16:34:06.965Z,91.10
2023-04-03T16:36:34.857Z,91.70
2023-04-03T16:39:02.820Z,91.70
2023-04-03T16:41:33.081Z,92.60
2023-04-03T16:44:01.017Z,92.10
2023-04-03T16:46:31.432Z,91.70
2023-04-03T16:48:59.829Z,92.40
2023-04-03T16:51:31.089Z,91.90
2023-04-03T16:53:59.171Z,92.10
2023-04-03T16:56:28.846Z,91.30
2023-04-03T16:58:56.941Z,91.30
2023-04-03T17:01:27.922Z,91.20
2023-04-03T17:04:01.466Z,91.60
2023-04-03T17:06:31.040Z,91.70
2023-04-03T17:08:59.124Z,91.60
2023-04-03T17:11:28.149Z,90.70
2023-04-03T17:13:56.218Z,91.40
2023-04-03T17:16:26.432Z,91.90
2023-04-03T17:18:55.087Z,91.20
2023-04-03T17:21:26.562Z,91.30
2023-04-03T17:23:59.018Z,91.40
2023-04-03T17:26:28.852Z,91.80
2023-04-03T17:28:57.294Z,92.40
2023-04-03T17:31:28.364Z,92.40
2023-04-03T17:33:57.615Z,93.50
2023-04-03T17:36:27.410Z,93.80
2023-04-03T17:38:58.651Z,94.30
2023-04-03T17:41:27.198Z,95.00
2023-04-03T17:43:56.900Z,94.80
2023-04-03T17:46:26.706Z,95.10
2023-04-03T17:48:58.322Z,95.00
2023-04-03T17:51:34.368Z,95.10
2023-04-03T17:54:05.036Z,95.60
2023-04-03T17:56:35.724Z,95.90
2023-04-03T17:59:03.733Z,96.00
2023-04-03T18:01:35.762Z,97.10
2023-04-03T18:04:08.425Z,97.30
2023-04-03T18:06:46.150Z,97.10
2023-04-03T18:09:19.253Z,98.20
2023-04-03T18:11:50.702Z,98.20
2023-04-03T18:14:21.536Z,98.80
2023-04-03T18:16:51.050Z,98.90
2023-04-03T18:19:23.502Z,98.90
2023-04-03T18:21:52.554Z,99.90
2023-04-03T18:24:31.914Z,99.90
2023-04-03T18:27:09.772Z,99.90
2023-04-03T18:29:40.465Z,99.90
2023-04-03T18:32:10.562Z,99.90
2023-04-03T18:34:38.586Z,99.90
2023-04-03T18:37:08.954Z,99.90
2023-04-03T18:39:39.658Z,99.90
2023-04-03T18:42:16.448Z,99.90
2023-04-03T18:45:00.186Z,99.90
2023-04-03T18:47:29.725Z,99.90
2023-04-03T18:49:58.775Z,99.90
2023-04-03T18:52:30.445Z,99.90
2023-04-03T18:55:01.807Z,99.90
2023-04-03T18:57:30.399Z,99.90
2023-04-03T18:59:58.307Z,99.90
2023-04-03T19:02:26.910Z,99.90
2023-04-03T19:04:57.022Z,99.90
2023-04-03T19:07:25.177Z,99.90
2023-04-03T19:09:53.135Z,99.90
2023-04-03T19:12:45.122Z,99.90
2023-04-03T19:15:13.257Z,99.90
2023-04-03T19:17:45.894Z,99.90
2023-04-03T19:20:16.045Z,99.90
2023-04-03T19:22:44.324Z,99.90
2023-04-03T19:25:13.200Z,99.90
2023-04-03T19:27:43.883Z,99.90
2023-04-03T19:30:16.451Z,99.90
2023-04-03T19:32:44.720Z,99.90
2023-04-03T19:35:17.014Z,99.90
2023-04-03T19:37:51.173Z,99.90
2023-04-03T19:41:35.736Z,99.90
2023-04-03T19:44:05.854Z,99.90
2023-04-03T19:46:33.819Z,99.90
2023-04-03T19:49:01.969Z,99.90
2023-04-03T19:51:29.950Z,99.90
2023-04-03T19:53:58.249Z,99.90
2023-04-03T19:56:28.814Z,99.90
2023-04-03T20:01:53.524Z,99.90
2023-04-03T20:04:21.567Z,99.90
2023-04-03T20:06:52.210Z,99.90
2023-04-03T20:09:24.414Z,99.90
2023-04-03T20:11:54.525Z,99.90
2023-04-03T20:14:30.788Z,99.90
2023-04-03T20:20:42.525Z,99.90
2023-04-03T20:23:22.218Z,99.90
2023-04-03T20:26:12.168Z,99.90
2023-04-03T20:29:00.241Z,99.90
2023-04-03T20:31:30.177Z,99.90
2023-04-03T20:33:58.129Z,99.90
2023-04-03T20:36:29.341Z,99.90
2023-04-03T20:38:57.568Z,99.90
2023-04-03T20:41:29.678Z,99.90
2023-04-03T20:44:00.329Z,99.90
2023-04-03T20:46:42.182Z,99.90
2023-04-03T20:49:16.836Z,99.90
2023-04-03T20:51:47.125Z,99.90
2023-04-03T20:54:14.983Z,99.90
2023-04-03T20:56:44.220Z,99.90
2023-04-03T20:59:15.065Z,99.90
2023-04-03T21:01:44.500Z,99.90
2023-04-03T21:04:16.997Z,99.90
2023-04-03T21:07:24.356Z,99.90
2023-04-03T21:10:29.560Z,99.90
2023-04-03T21:13:35.163Z,99.90
2023-04-03T21:16:03.228Z,99.90
2023-04-03T21:18:58.313Z,99.90
2023-04-03T21:21:27.113Z,99.90
2023-04-03T21:23:56.639Z,99.90
2023-04-03T21:26:27.514Z,99.90
2023-04-03T21:28:56.961Z,99.90
2023-04-03T21:31:25.376Z,99.90
2023-04-03T21:33:57.196Z,99.90
2023-04-03T21:36:25.348Z,99.90
2023-04-03T21:38:58.445Z,99.90
2023-04-03T21:41:26.615Z,99.90
2023-04-03T21:43:54.574Z,99.90
2023-04-03T21:46:22.503Z,99.90
2023-04-03T21:48:50.726Z,99.90
2023-04-03T21:51:20.081Z,99.90
2023-04-03T21:53:52.578Z,99.90
2023-04-03T21:56:22.390Z,99.90
2023-04-03T21:58:50.558Z,99.90
2023-04-03T22:01:19.598Z,99.90
2023-04-03T22:03:49.613Z,99.90
2023-04-03T22:06:19.434Z,99.90
2023-04-03T22:08:47.352Z,99.90
2023-04-03T22:11:17.017Z,99.90
2023-04-03T22:13:45.722Z,99.90
2023-04-03T22:16:14.046Z,99.90
2023-04-03T22:18:42.019Z,99.90
2023-04-03T22:21:10.155Z,99.90
2023-04-03T22:23:41.980Z,99.90
2023-04-03T22:29:04.013Z,99.90
2023-04-03T22:31:32.204Z,99.90
2023-04-03T22:34:04.147Z,99.90
2023-04-03T22:36:34.391Z,99.90
2023-04-03T22:39:05.929Z,99.90
2023-04-03T22:41:34.890Z,99.90
2023-04-03T22:44:02.838Z,99.90
2023-04-03T22:46:30.809Z,99.90
2023-04-03T22:48:58.864Z,99.90
2023-04-03T22:51:27.457Z,99.90
2023-04-03T22:53:55.807Z,99.90
2023-04-03T22:56:27.814Z,99.90
2023-04-03T22:58:55.914Z,99.90
2023-04-03T23:01:25.816Z,99.90
2023-04-03T23:03:53.655Z,99.90
2023-04-03T23:06:24.285Z,99.90
2023-04-03T23:08:53.741Z,99.90
2023-04-03T23:11:21.671Z,99.90
2023-04-03T23:13:53.607Z,99.90
2023-04-03T23:16:21.546Z,99.90
2023-04-03T23:18:52.282Z,99.90
2023-04-03T23:21:21.030Z,99.90
2023-04-03T23:23:48.923Z,99.90
2023-04-03T23:26:17.833Z,99.90
2023-04-03T23:28:45.917Z,99.90
2023-04-03T23:31:18.154Z,99.90
2023-04-03T23:33:47.439Z,99.90
2023-04-03T23:36:16.027Z,99.90
2023-04-03T23:38:44.164Z,99.90
2023-04-03T23:41:13.956Z,99.90
2023-04-03T23:43:43.237Z,99.90
2023-04-03T23:46:12.325Z,99.90
2023-04-03T23:48:41.534Z,99.90
2023-04-03T23:51:10.022Z,99.90
2023-04-03T23:53:38.755Z,99.90
2023-04-03T23:56:11.525Z,99.90
2023-04-03T23:58:39.465Z,99.90
